createdAt,value
2024-04-24T00:00:42.717Z,51.87
2024-04-24T00:01:42.755Z,51.63
2024-04-24T00:02:42.828Z,52.65
2024-04-24T00:03:42.940Z,51.77
2024-04-24T00:04:42.871Z,55.27
2024-04-24T00:05:42.911Z,53.05
2024-04-24T00:06:42.950Z,52.80
2024-04-24T00:07:42.993Z,51.39
2024-04-24T00:08:43.026Z,54.12
2024-04-24T00:09:43.052Z,53.40
2024-04-24T00:10:43.150Z,54.69
2024-04-24T00:11:43.223Z,54.24
2024-04-24T00:12:43.147Z,52.86
2024-04-24T00:13:43.170Z,55.27
2024-04-24T00:14:43.208Z,51.47
2024-04-24T00:15:43.246Z,51.92
2024-04-24T00:16:43.270Z,52.36
2024-04-24T00:17:43.336Z,51.19
2024-04-24T00:18:43.435Z,52.73
2024-04-24T00:19:43.386Z,52.50
2024-04-24T00:20:43.417Z,51.17
2024-04-24T00:21:43.442Z,54.93
2024-04-24T00:22:43.483Z,50.76
2024-04-24T00:23:43.498Z,52.18
2024-04-24T00:24:43.525Z,52.95
2024-04-24T00:25:43.567Z,52.34
2024-04-24T00:26:43.603Z,54.99
2024-04-24T00:27:43.643Z,53.73
2024-04-24T00:28:43.677Z,52.38
2024-04-24T00:29:43.711Z,52.95
2024-04-24T00:30:43.741Z,52.10
2024-04-24T00:31:43.786Z,51.75
2024-04-24T00:32:43.917Z,51.96
2024-04-24T00:33:43.916Z,51.87
2024-04-24T00:34:43.863Z,51.03
2024-04-24T00:35:43.902Z,55.75
2024-04-24T00:36:43.922Z,52.10
2024-04-24T00:37:43.964Z,55.16
2024-04-24T00:38:44.000Z,54.32
2024-04-24T00:39:44.028Z,54.41
2024-04-24T00:40:44.062Z,53.02
2024-04-24T00:41:44.085Z,52.46
2024-04-24T00:42:44.114Z,51.56
2024-04-24T00:43:44.145Z,53.25
2024-04-24T00:44:44.175Z,52.15
2024-04-24T00:45:47.545Z,52.86
2024-04-24T00:46:44.230Z,55.10
2024-04-24T00:47:44.271Z,52.62
2024-04-24T00:48:44.289Z,55.30
2024-04-24T00:49:44.259Z,54.86
2024-04-24T00:50:44.253Z,52.36
2024-04-24T00:51:44.259Z,53.37
2024-04-24T00:52:44.290Z,53.59
2024-04-24T00:53:44.303Z,53.80
2024-04-24T00:54:44.310Z,54.01
2024-04-24T00:55:44.321Z,52.61
2024-04-24T00:56:44.312Z,50.16
2024-04-24T00:57:44.318Z,52.62
2024-04-24T00:58:44.337Z,53.86
2024-04-24T00:59:44.357Z,52.45
2024-04-24T01:00:44.434Z,55.16
2024-04-24T01:01:44.360Z,51.91
2024-04-24T01:02:44.422Z,54.27
2024-04-24T01:03:44.469Z,52.98
2024-04-24T01:04:44.413Z,52.76
2024-04-24T01:05:44.430Z,52.76
2024-04-24T01:06:45.295Z,50.79
2024-04-24T01:07:44.471Z,53.34
2024-04-24T01:08:44.503Z,54.68
2024-04-24T01:09:44.499Z,51.00
2024-04-24T01:10:44.548Z,52.44
2024-04-24T01:11:44.584Z,50.07
2024-04-24T01:12:44.548Z,52.10
2024-04-24T01:13:44.664Z,51.80
2024-04-24T01:14:44.597Z,53.38
2024-04-24T01:15:44.621Z,51.29
2024-04-24T01:16:44.640Z,52.03
2024-04-24T01:17:44.798Z,50.33
2024-04-24T01:18:44.700Z,53.82
2024-04-24T01:19:44.696Z,55.46
2024-04-24T01:20:44.733Z,53.98
2024-04-24T01:21:44.740Z,53.06
2024-04-24T01:22:44.863Z,51.40
2024-04-24T01:23:44.792Z,52.36
2024-04-24T01:24:44.803Z,50.85
2024-04-24T01:25:44.913Z,53.74
2024-04-24T01:26:44.813Z,52.07
2024-04-24T01:27:44.825Z,53.33
2024-04-24T01:28:44.888Z,52.58
2024-04-24T01:29:44.877Z,55.09
2024-04-24T01:30:44.853Z,51.05
2024-04-24T01:31:44.932Z,53.63
2024-04-24T01:32:45.013Z,52.59
2024-04-24T01:33:44.949Z,53.78
2024-04-24T01:34:44.983Z,54.47
2024-04-24T01:35:44.924Z,53.25
2024-04-24T01:36:44.971Z,52.78
2024-04-24T01:37:45.127Z,53.91
2024-04-24T01:38:45.014Z,52.46
2024-04-24T01:39:45.042Z,54.07
2024-04-24T01:40:45.102Z,52.50
2024-04-24T01:41:45.136Z,54.49
2024-04-24T01:42:45.149Z,54.09
2024-04-24T01:43:45.241Z,51.42
2024-04-24T01:44:45.244Z,55.19
2024-04-24T01:45:45.247Z,52.74
2024-04-24T01:46:45.348Z,52.37
2024-04-24T01:47:45.412Z,51.90
2024-04-24T01:48:45.430Z,52.04
2024-04-24T01:49:45.482Z,55.61
2024-04-24T01:50:45.442Z,52.52
2024-04-24T01:51:45.511Z,52.81
2024-04-24T01:52:45.617Z,53.28
2024-04-24T01:53:45.575Z,52.52
2024-04-24T01:54:45.612Z,52.89
2024-04-24T01:55:45.689Z,53.13
2024-04-24T01:56:45.708Z,52.09
2024-04-24T01:57:45.729Z,52.21
2024-04-24T01:58:45.776Z,54.12
2024-04-24T01:59:45.782Z,53.04
2024-04-24T02:00:45.844Z,53.41
2024-04-24T02:01:45.874Z,52.44
2024-04-24T02:02:45.917Z,52.48
2024-04-24T02:03:45.982Z,53.81
2024-04-24T02:04:46.017Z,55.03
2024-04-24T02:05:46.040Z,52.92
2024-04-24T02:06:46.077Z,54.30
2024-04-24T02:07:46.138Z,50.33
2024-04-24T02:08:46.150Z,53.99
2024-04-24T02:09:46.193Z,52.09
2024-04-24T02:10:46.235Z,52.71
2024-04-24T02:11:51.301Z,52.99
2024-04-24T02:12:47.331Z,53.16
2024-04-24T02:13:46.438Z,53.01
2024-04-24T02:14:46.303Z,53.63
2024-04-24T02:15:46.319Z,54.01
2024-04-24T02:16:46.358Z,52.04
2024-04-24T02:17:46.450Z,54.20
2024-04-24T02:18:46.437Z,54.95
2024-04-24T02:19:46.406Z,54.09
2024-04-24T02:20:46.394Z,50.06
2024-04-24T02:21:46.398Z,53.50
2024-04-24T02:22:46.413Z,53.30
2024-04-24T02:23:46.440Z,53.75
2024-04-24T02:24:46.444Z,52.57
2024-04-24T02:25:46.452Z,53.00
2024-04-24T02:26:46.470Z,52.31
2024-04-24T02:27:46.502Z,55.73
2024-04-24T02:28:46.557Z,54.27
2024-04-24T02:29:52.053Z,52.25
2024-04-24T02:30:47.529Z,52.43
2024-04-24T02:31:46.553Z,52.72
2024-04-24T02:32:46.695Z,53.26
2024-04-24T02:33:46.590Z,53.29
2024-04-24T02:34:46.576Z,55.61
2024-04-24T02:35:46.590Z,55.15
2024-04-24T02:36:46.602Z,53.81
2024-04-24T02:37:46.648Z,54.59
2024-04-24T02:38:46.649Z,53.55
2024-04-24T02:39:46.685Z,53.51
2024-04-24T02:40:46.687Z,53.29
2024-04-24T02:41:46.660Z,50.67
2024-04-24T02:42:46.688Z,53.50
2024-04-24T02:43:47.306Z,53.86
2024-04-24T02:44:46.698Z,54.16
2024-04-24T02:45:46.705Z,52.69
2024-04-24T02:46:46.730Z,52.86
2024-04-24T02:47:46.848Z,52.46
2024-04-24T02:48:46.803Z,52.52
2024-04-24T02:49:46.794Z,51.71
2024-04-24T02:50:46.770Z,51.01
2024-04-24T02:51:46.774Z,54.94
2024-04-24T02:52:46.831Z,54.18
2024-04-24T02:53:46.790Z,52.11
2024-04-24T02:54:46.806Z,52.76
2024-04-24T02:55:46.828Z,52.61
2024-04-24T02:56:48.684Z,52.85
2024-04-24T02:57:46.823Z,55.92
2024-04-24T02:58:46.869Z,53.25
2024-04-24T02:59:46.844Z,54.61
2024-04-24T03:00:46.890Z,55.44
2024-04-24T03:01:46.938Z,53.72
2024-04-24T03:02:46.987Z,51.08
2024-04-24T03:03:46.948Z,54.85
2024-04-24T03:04:46.915Z,52.40
2024-04-24T03:05:46.916Z,51.49
2024-04-24T03:06:46.931Z,52.83
2024-04-24T03:07:46.952Z,51.43
2024-04-24T03:08:46.956Z,55.49
2024-04-24T03:09:46.968Z,53.98
2024-04-24T03:10:47.042Z,52.32
2024-04-24T03:11:47.026Z,51.99
2024-04-24T03:12:47.009Z,52.67
2024-04-24T03:13:47.042Z,52.71
2024-04-24T03:14:47.062Z,52.38
2024-04-24T03:15:47.055Z,51.88
2024-04-24T03:16:47.095Z,51.88
2024-04-24T03:17:47.207Z,53.71
2024-04-24T03:18:47.056Z,52.34
2024-04-24T03:19:47.090Z,53.67
2024-04-24T03:20:47.115Z,52.15
2024-04-24T03:21:47.104Z,51.92
2024-04-24T03:22:47.121Z,53.75
2024-04-24T03:23:47.139Z,52.64
2024-04-24T03:24:47.119Z,52.39
2024-04-24T03:25:47.160Z,53.19
2024-04-24T03:26:47.139Z,54.55
2024-04-24T03:27:47.140Z,51.93
2024-04-24T03:28:47.183Z,55.71
2024-04-24T03:29:47.159Z,52.35
2024-04-24T03:30:47.176Z,53.78
2024-04-24T03:31:47.242Z,53.87
2024-04-24T03:32:47.428Z,51.77
2024-04-24T03:33:47.257Z,53.61
2024-04-24T03:34:47.271Z,52.76
2024-04-24T03:35:47.230Z,53.05
2024-04-24T03:36:47.260Z,52.35
2024-04-24T03:37:47.288Z,51.84
2024-04-24T03:38:47.256Z,52.90
2024-04-24T03:39:47.260Z,53.88
2024-04-24T03:40:47.291Z,52.84
2024-04-24T03:41:47.287Z,52.58
2024-04-24T03:42:47.305Z,54.62
2024-04-24T03:43:47.357Z,51.46
2024-04-24T03:44:47.321Z,53.48
2024-04-24T03:45:47.323Z,52.07
2024-04-24T03:46:47.376Z,53.59
2024-04-24T03:47:47.427Z,52.76
2024-04-24T03:48:47.465Z,53.75
2024-04-24T03:49:47.412Z,53.63
2024-04-24T03:50:47.389Z,54.93
2024-04-24T03:51:47.406Z,52.29
2024-04-24T03:52:47.427Z,53.53
2024-04-24T03:53:47.417Z,51.37
2024-04-24T03:54:47.421Z,51.87
2024-04-24T03:55:47.436Z,51.94
2024-04-24T03:56:47.425Z,54.14
2024-04-24T03:57:47.424Z,53.67
2024-04-24T03:58:47.521Z,52.76
2024-04-24T03:59:47.449Z,53.70
2024-04-24T04:00:47.560Z,53.86
2024-04-24T04:01:47.556Z,51.95
2024-04-24T04:02:47.539Z,54.01
2024-04-24T04:03:47.580Z,53.05
2024-04-24T04:04:47.563Z,52.74
2024-04-24T04:05:47.536Z,53.52
2024-04-24T04:06:47.539Z,53.33
2024-04-24T04:07:47.559Z,51.82
2024-04-24T04:08:47.553Z,54.38
2024-04-24T04:09:47.551Z,52.01
2024-04-24T04:10:47.633Z,52.68
2024-04-24T04:11:47.689Z,52.01
2024-04-24T04:12:47.591Z,50.00
2024-04-24T04:13:47.610Z,50.49
2024-04-24T04:14:47.591Z,50.79
2024-04-24T04:15:47.612Z,52.47
2024-04-24T04:16:47.628Z,50.00
2024-04-24T04:17:47.867Z,52.70
2024-04-24T04:18:47.666Z,52.14
2024-04-24T04:19:47.686Z,52.35
2024-04-24T04:20:47.652Z,52.32
2024-04-24T04:21:47.669Z,53.43
2024-04-24T04:22:47.720Z,51.94
2024-04-24T04:23:47.674Z,53.04
2024-04-24T04:24:47.681Z,52.75
2024-04-24T04:25:47.695Z,52.10
2024-04-24T04:26:47.688Z,52.71
2024-04-24T04:27:47.697Z,51.41
2024-04-24T04:28:47.749Z,55.73
2024-04-24T04:29:47.715Z,53.45
2024-04-24T04:30:47.721Z,50.42
2024-04-24T04:31:47.741Z,55.84
2024-04-24T04:32:47.800Z,53.20
2024-04-24T04:33:47.792Z,54.06
2024-04-24T04:34:47.763Z,54.84
2024-04-24T04:35:47.749Z,53.26
2024-04-24T04:36:47.755Z,52.68
2024-04-24T04:37:47.797Z,52.36
2024-04-24T04:38:47.780Z,52.88
2024-04-24T04:39:47.781Z,53.02
2024-04-24T04:40:47.829Z,53.70
2024-04-24T04:41:47.793Z,55.12
2024-04-24T04:42:47.799Z,52.73
2024-04-24T04:43:47.841Z,52.22
2024-04-24T04:44:47.817Z,53.84
2024-04-24T04:45:47.823Z,53.06
2024-04-24T04:46:47.913Z,52.77
2024-04-24T04:47:48.063Z,53.66
2024-04-24T04:48:55.443Z,50.00
2024-04-24T04:49:55.408Z,50.00
2024-04-24T04:50:55.419Z,50.00
2024-04-24T04:51:55.429Z,50.00
2024-04-24T04:52:55.501Z,50.00
2024-04-24T04:53:55.482Z,50.04
2024-04-24T04:54:55.476Z,50.44
2024-04-24T04:55:55.621Z,50.84
2024-04-24T04:56:55.504Z,50.53
2024-04-24T04:57:55.577Z,50.12
2024-04-24T04:58:55.599Z,53.15
2024-04-24T04:59:55.555Z,53.42
2024-04-24T05:00:55.595Z,52.63
2024-04-24T05:01:58.989Z,50.89
2024-04-24T05:02:55.607Z,51.05
2024-04-24T05:03:55.610Z,51.42
2024-04-24T05:04:55.644Z,51.68
2024-04-24T05:05:55.623Z,51.30
2024-04-24T05:06:55.644Z,50.15
2024-04-24T05:07:55.684Z,52.87
2024-04-24T05:08:55.689Z,53.25
2024-04-24T05:09:55.696Z,52.10
2024-04-24T05:10:55.784Z,51.69
2024-04-24T05:11:55.776Z,51.90
2024-04-24T05:12:55.732Z,51.15
2024-04-24T05:13:55.776Z,52.79
2024-04-24T05:14:55.751Z,50.35
2024-04-24T05:15:55.778Z,51.74
2024-04-24T05:16:55.903Z,52.36
2024-04-24T05:17:55.873Z,53.97
2024-04-24T05:18:55.903Z,54.16
2024-04-24T05:19:55.834Z,53.35
2024-04-24T05:20:55.837Z,53.83
2024-04-24T05:21:55.838Z,53.87
2024-04-24T05:22:55.858Z,51.06
2024-04-24T05:23:55.863Z,51.85
2024-04-24T05:24:55.896Z,53.59
2024-04-24T05:25:55.913Z,56.81
2024-04-24T05:26:55.898Z,58.72
2024-04-24T05:27:55.913Z,64.96
2024-04-24T05:28:58.512Z,70.55
2024-04-24T05:29:56.151Z,77.32
2024-04-24T05:30:56.237Z,80.05
2024-04-24T05:31:56.317Z,82.74
2024-04-24T05:32:56.523Z,87.38
2024-04-24T05:33:56.577Z,84.80
2024-04-24T05:34:56.659Z,90.71
2024-04-24T05:35:56.612Z,90.51
2024-04-24T05:36:56.682Z,94.36
2024-04-24T05:37:56.776Z,95.52
2024-04-24T05:38:56.844Z,100.03
2024-04-24T05:39:56.912Z,101.58
2024-04-24T05:40:56.994Z,102.59
2024-04-24T05:41:57.004Z,102.17
2024-04-24T05:42:57.082Z,104.00
2024-04-24T05:43:57.236Z,104.79
2024-04-24T05:44:57.142Z,104.69
2024-04-24T05:45:57.191Z,106.77
2024-04-24T05:46:57.240Z,105.54
2024-04-24T05:47:57.365Z,105.44
2024-04-24T05:48:57.370Z,108.18
2024-04-24T05:49:57.408Z,107.27
2024-04-24T05:50:57.358Z,105.91
2024-04-24T05:51:57.418Z,106.45
2024-04-24T05:52:57.507Z,107.08
2024-04-24T05:53:57.498Z,105.25
2024-04-24T05:54:57.558Z,106.92
2024-04-24T05:55:57.566Z,105.50
2024-04-24T05:56:57.633Z,104.53
2024-04-24T05:57:57.672Z,106.17
2024-04-24T05:58:57.796Z,104.39
2024-04-24T05:59:57.819Z,107.47
2024-04-24T06:00:58.581Z,106.25
2024-04-24T06:01:57.973Z,105.52
2024-04-24T06:02:57.961Z,105.29
2024-04-24T06:03:58.009Z,105.93
2024-04-24T06:04:58.088Z,105.95
2024-04-24T06:05:58.107Z,105.76
2024-04-24T06:06:58.194Z,103.57
2024-04-24T06:07:58.217Z,105.96
2024-04-24T06:08:58.252Z,106.19
2024-04-24T06:09:58.942Z,106.89
2024-04-24T06:10:58.419Z,106.09
2024-04-24T06:11:58.500Z,106.06
2024-04-24T06:12:58.488Z,107.01
2024-04-24T06:13:58.622Z,107.35
2024-04-24T06:14:59.442Z,108.97
2024-04-24T06:15:58.669Z,107.68
2024-04-24T06:16:58.731Z,107.50
2024-04-24T06:17:58.879Z,107.15
2024-04-24T06:18:58.883Z,107.82
2024-04-24T06:19:58.894Z,110.38
2024-04-24T06:20:58.929Z,109.98
2024-04-24T06:21:58.953Z,108.71
2024-04-24T06:22:59.018Z,108.80
2024-04-24T06:23:59.045Z,110.34
2024-04-24T06:24:59.058Z,113.48
2024-04-24T06:25:59.103Z,116.00
2024-04-24T06:26:59.144Z,107.78
2024-04-24T06:27:59.189Z,88.28
2024-04-24T06:28:59.218Z,74.78
2024-04-24T06:29:59.228Z,65.40
2024-04-24T06:30:59.295Z,56.42
2024-04-24T06:31:59.431Z,50.58
2024-04-24T06:32:59.524Z,50.00
2024-04-24T06:33:59.565Z,51.43
2024-04-24T06:34:59.697Z,50.00
2024-04-24T06:35:59.750Z,50.41
2024-04-24T06:36:59.829Z,51.29
2024-04-24T06:37:59.886Z,48.85
2024-04-24T06:38:59.961Z,50.18
2024-04-24T06:40:00.062Z,50.12
2024-04-24T06:41:00.153Z,52.68
2024-04-24T06:42:00.170Z,56.82
2024-04-24T06:43:00.246Z,61.44
2024-04-24T06:44:00.322Z,62.42
2024-04-24T06:45:00.329Z,66.85
2024-04-24T06:46:00.296Z,76.43
2024-04-24T06:47:00.415Z,78.20
2024-04-24T06:48:00.499Z,83.02
2024-04-24T06:49:00.956Z,92.49
2024-04-24T06:50:00.620Z,97.27
2024-04-24T06:51:00.604Z,105.23
2024-04-24T06:52:00.676Z,112.13
2024-04-24T06:53:00.700Z,116.36
2024-04-24T06:54:00.711Z,122.46
2024-04-24T06:55:00.739Z,127.65
2024-04-24T06:56:00.792Z,135.40
2024-04-24T06:57:00.806Z,141.02
2024-04-24T06:58:01.183Z,148.55
2024-04-24T06:59:00.892Z,150.34
2024-04-24T07:00:00.884Z,158.57
2024-04-24T07:01:00.963Z,162.86
2024-04-24T07:02:00.981Z,168.78
2024-04-24T07:03:00.932Z,173.25
2024-04-24T07:04:00.910Z,177.26
2024-04-24T07:05:01.522Z,186.09
2024-04-24T07:06:00.899Z,193.25
2024-04-24T07:07:00.894Z,197.25
2024-04-24T07:08:00.980Z,200.00
2024-04-24T07:09:00.932Z,200.00
2024-04-24T07:10:00.924Z,200.00
2024-04-24T07:11:01.055Z,200.00
2024-04-24T07:12:01.037Z,199.37
2024-04-24T07:13:01.010Z,199.39
2024-04-24T07:14:01.120Z,200.57
2024-04-24T07:15:01.130Z,200.00
2024-04-24T07:16:01.147Z,199.70
2024-04-24T07:17:01.212Z,200.00
2024-04-24T07:18:01.466Z,199.69
2024-04-24T07:19:01.366Z,200.52
2024-04-24T07:20:01.235Z,199.89
2024-04-24T07:21:01.252Z,199.61
2024-04-24T07:22:01.236Z,199.52
2024-04-24T07:23:01.256Z,200.20
2024-04-24T07:24:01.237Z,200.12
2024-04-24T07:25:01.254Z,199.86
2024-04-24T07:26:01.321Z,199.80
2024-04-24T07:27:01.351Z,200.00
2024-04-24T07:28:02.083Z,199.68
2024-04-24T07:29:01.519Z,199.46
2024-04-24T07:30:01.557Z,200.00
2024-04-24T07:31:02.683Z,198.90
2024-04-24T07:32:01.656Z,199.73
2024-04-24T07:33:01.665Z,199.58
2024-04-24T07:34:01.849Z,199.64
2024-04-24T07:35:01.734Z,199.77
2024-04-24T07:36:03.870Z,199.58
2024-04-24T07:37:01.750Z,199.62
2024-04-24T07:38:01.754Z,199.52
2024-04-24T07:39:02.556Z,200.00
2024-04-24T07:40:01.739Z,199.76
2024-04-24T07:41:01.707Z,199.59
2024-04-24T07:42:01.730Z,199.89
2024-04-24T07:43:01.673Z,199.27
2024-04-24T07:44:01.697Z,200.00
2024-04-24T07:45:01.644Z,199.92
2024-04-24T07:46:01.639Z,199.77
2024-04-24T07:47:04.258Z,200.00
2024-04-24T07:48:01.747Z,200.04
2024-04-24T07:49:01.631Z,200.36
2024-04-24T07:50:01.619Z,200.84
2024-04-24T07:51:01.613Z,202.70
2024-04-24T07:52:01.623Z,205.37
2024-04-24T07:53:01.552Z,199.23
2024-04-24T07:54:01.518Z,200.00
2024-04-24T07:55:01.544Z,199.94
2024-04-24T07:56:01.518Z,199.88
2024-04-24T07:57:01.482Z,200.08
2024-04-24T07:58:01.462Z,200.00
2024-04-24T07:59:01.534Z,199.61
2024-04-24T08:00:01.455Z,199.51
2024-04-24T08:01:01.491Z,200.31
2024-04-24T08:02:01.462Z,200.00
2024-04-24T08:03:01.479Z,200.00
2024-04-24T08:04:01.395Z,199.74
2024-04-24T08:05:01.418Z,199.79
2024-04-24T08:06:01.348Z,200.00
2024-04-24T08:07:01.333Z,199.94
2024-04-24T08:08:01.350Z,200.00
2024-04-24T08:09:01.349Z,185.97
2024-04-24T08:10:01.303Z,170.41
2024-04-24T08:11:01.433Z,160.56
2024-04-24T08:12:01.400Z,151.87
2024-04-24T08:13:01.288Z,136.96
2024-04-24T08:14:01.383Z,134.25
2024-04-24T08:15:02.115Z,131.02
2024-04-24T08:16:01.412Z,123.94
2024-04-24T08:17:01.319Z,113.40
2024-04-24T08:18:01.360Z,106.99
2024-04-24T08:19:01.329Z,103.03
2024-04-24T08:20:01.401Z,101.53
2024-04-24T08:21:01.359Z,99.17
2024-04-24T08:22:01.382Z,98.24
2024-04-24T08:23:01.484Z,98.06
2024-04-24T08:24:01.367Z,99.96
2024-04-24T08:25:01.365Z,101.68
2024-04-24T08:26:01.359Z,103.88
2024-04-24T08:27:01.335Z,106.03
2024-04-24T08:28:01.337Z,107.35
2024-04-24T08:29:01.336Z,109.71
2024-04-24T08:30:01.346Z,110.47
2024-04-24T08:31:01.316Z,112.56
2024-04-24T08:32:01.335Z,113.25
2024-04-24T08:33:01.382Z,114.08
2024-04-24T08:34:01.426Z,116.01
2024-04-24T08:35:01.315Z,117.86
2024-04-24T08:36:01.251Z,117.16
2024-04-24T08:37:01.251Z,118.25
2024-04-24T08:38:01.305Z,119.73
2024-04-24T08:39:01.693Z,119.89
2024-04-24T08:40:01.226Z,121.76
2024-04-24T08:41:01.267Z,122.69
2024-04-24T08:42:01.265Z,123.95
2024-04-24T08:43:01.305Z,125.96
2024-04-24T08:44:01.385Z,127.43
2024-04-24T08:45:01.389Z,128.94
2024-04-24T08:46:01.457Z,128.48
2024-04-24T08:47:01.524Z,130.75
2024-04-24T08:48:01.652Z,131.72
2024-04-24T08:49:01.833Z,133.75
2024-04-24T08:50:01.784Z,134.62
2024-04-24T08:51:01.738Z,135.70
2024-04-24T08:52:01.786Z,137.10
2024-04-24T08:53:01.855Z,138.76
2024-04-24T08:54:01.916Z,139.68
2024-04-24T08:55:01.958Z,141.25
2024-04-24T08:56:02.034Z,142.89
2024-04-24T08:57:02.113Z,144.39
2024-04-24T08:58:02.113Z,144.91
2024-04-24T08:59:02.665Z,146.97
2024-04-24T09:00:03.114Z,147.38
2024-04-24T09:01:02.318Z,148.59
2024-04-24T09:02:03.025Z,149.74
2024-04-24T09:03:02.496Z,150.47
2024-04-24T09:04:02.483Z,153.79
2024-04-24T09:05:02.508Z,155.80
2024-04-24T09:06:02.491Z,156.83
2024-04-24T09:07:02.509Z,162.04
2024-04-24T09:08:02.584Z,162.28
2024-04-24T09:09:02.578Z,164.02
2024-04-24T09:10:02.591Z,166.17
2024-04-24T09:11:02.687Z,167.62
2024-04-24T09:12:02.683Z,169.59
2024-04-24T09:13:02.689Z,171.53
2024-04-24T09:14:02.761Z,173.07
2024-04-24T09:15:02.813Z,173.52
2024-04-24T09:16:02.777Z,176.35
2024-04-24T09:17:02.838Z,177.34
2024-04-24T09:18:02.992Z,177.09
2024-04-24T09:19:03.065Z,167.41
2024-04-24T09:20:02.991Z,160.85
2024-04-24T09:21:03.584Z,151.07
2024-04-24T09:22:03.012Z,139.18
2024-04-24T09:23:03.022Z,134.32
2024-04-24T09:24:03.092Z,132.77
2024-04-24T09:25:03.071Z,132.25
2024-04-24T09:26:03.150Z,133.15
2024-04-24T09:27:03.095Z,134.27
2024-04-24T09:28:03.144Z,134.46
2024-04-24T09:29:03.739Z,136.67
2024-04-24T09:30:04.239Z,136.98
2024-04-24T09:31:03.064Z,138.75
2024-04-24T09:32:03.184Z,139.85
2024-04-24T09:33:03.162Z,140.91
2024-04-24T09:34:03.069Z,143.86
2024-04-24T09:35:03.135Z,145.29
2024-04-24T09:36:03.078Z,146.68
2024-04-24T09:37:04.053Z,146.91
2024-04-24T09:38:03.183Z,147.12
2024-04-24T09:39:03.248Z,147.35
2024-04-24T09:40:03.271Z,148.90
2024-04-24T09:41:03.351Z,150.46
2024-04-24T09:42:03.391Z,152.08
2024-04-24T09:43:03.470Z,153.15
2024-04-24T09:44:03.605Z,154.40
2024-04-24T09:45:03.573Z,155.30
2024-04-24T09:46:03.579Z,156.41
2024-04-24T09:47:03.710Z,159.69
2024-04-24T09:48:03.822Z,161.64
2024-04-24T09:49:03.792Z,162.18
2024-04-24T09:50:04.539Z,165.18
2024-04-24T09:51:03.813Z,167.13
2024-04-24T09:52:03.843Z,168.92
2024-04-24T09:53:04.005Z,169.38
2024-04-24T09:54:03.940Z,171.54
2024-04-24T09:55:03.977Z,173.55
2024-04-24T09:56:04.127Z,173.05
2024-04-24T09:57:04.071Z,175.09
2024-04-24T09:58:05.115Z,175.95
2024-04-24T09:59:04.194Z,178.54
2024-04-24T10:00:05.131Z,179.16
2024-04-24T10:01:05.147Z,180.42
2024-04-24T10:02:04.319Z,183.41
2024-04-24T10:03:04.357Z,185.91
2024-04-24T10:04:04.347Z,188.61
2024-04-24T10:05:04.453Z,190.77
2024-04-24T10:06:04.454Z,190.70
2024-04-24T10:07:04.435Z,191.52
2024-04-24T10:08:05.123Z,192.39
2024-04-24T10:09:04.489Z,193.40
2024-04-24T10:10:04.553Z,195.01
2024-04-24T10:11:04.656Z,194.25
2024-04-24T10:12:05.227Z,192.97
2024-04-24T10:13:04.580Z,190.41
2024-04-24T10:14:04.730Z,187.39
2024-04-24T10:15:04.699Z,185.46
2024-04-24T10:16:04.737Z,184.81
2024-04-24T10:17:04.815Z,183.11
2024-04-24T10:18:04.968Z,182.13
2024-04-24T10:19:04.991Z,181.43
2024-04-24T10:20:12.092Z,182.71
2024-04-24T10:21:06.045Z,182.82
2024-04-24T10:22:04.940Z,183.10
2024-04-24T10:23:04.919Z,183.40
2024-04-24T10:24:04.918Z,184.15
2024-04-24T10:25:04.860Z,185.43
2024-04-24T10:26:04.865Z,184.21
2024-04-24T10:27:04.882Z,184.32
2024-04-24T10:28:04.824Z,184.29
2024-04-24T10:29:04.856Z,182.88
2024-04-24T10:30:04.821Z,182.30
2024-04-24T10:31:04.807Z,181.67
2024-04-24T10:32:04.929Z,180.87
2024-04-24T10:33:04.939Z,180.70
2024-04-24T10:34:05.774Z,180.11
2024-04-24T10:35:04.812Z,180.09
2024-04-24T10:36:04.747Z,178.87
2024-04-24T10:37:06.555Z,178.07
2024-04-24T10:38:04.824Z,177.35
2024-04-24T10:39:04.747Z,177.17
2024-04-24T10:40:04.765Z,176.76
2024-04-24T10:41:04.843Z,176.35
2024-04-24T10:42:04.788Z,175.43
2024-04-24T10:43:04.798Z,174.48
2024-04-24T10:44:04.843Z,173.95
2024-04-24T10:45:04.857Z,171.76
2024-04-24T10:46:04.901Z,170.98
2024-04-24T10:47:04.896Z,170.78
2024-04-24T10:48:04.921Z,169.82
2024-04-24T10:49:04.925Z,168.93
2024-04-24T10:50:04.941Z,169.31
2024-04-24T10:51:04.949Z,167.97
2024-04-24T10:52:04.980Z,168.23
2024-04-24T10:53:05.040Z,167.41
2024-04-24T10:54:05.057Z,166.33
2024-04-24T10:55:07.041Z,165.44
2024-04-24T10:56:05.030Z,164.45
2024-04-24T10:57:05.008Z,163.46
2024-04-24T10:58:05.015Z,162.79
2024-04-24T10:59:05.237Z,162.41
2024-04-24T11:00:04.995Z,161.16
2024-04-24T11:01:05.002Z,160.42
2024-04-24T11:02:05.027Z,159.50
2024-04-24T11:03:05.136Z,159.18
2024-04-24T11:04:04.996Z,157.69
2024-04-24T11:05:05.179Z,156.27
2024-04-24T11:06:05.017Z,156.34
2024-04-24T11:07:04.926Z,156.61
2024-04-24T11:08:05.002Z,155.36
2024-04-24T11:09:04.917Z,153.92
2024-04-24T11:10:05.636Z,154.12
2024-04-24T11:11:04.958Z,153.93
2024-04-24T11:12:05.164Z,152.93
2024-04-24T11:13:04.887Z,152.78
2024-04-24T11:14:04.909Z,151.56
2024-04-24T11:15:04.863Z,151.38
2024-04-24T11:16:10.177Z,150.46
2024-04-24T11:17:04.922Z,150.60
2024-04-24T11:18:04.923Z,150.67
2024-04-24T11:19:04.844Z,150.62
2024-04-24T11:20:04.861Z,150.21
2024-04-24T11:21:04.828Z,150.09
2024-04-24T11:22:04.819Z,149.17
2024-04-24T11:23:04.838Z,147.12
2024-04-24T11:24:04.813Z,147.04
2024-04-24T11:25:04.787Z,145.65
2024-04-24T11:26:04.838Z,145.16
2024-04-24T11:27:04.773Z,145.14
2024-04-24T11:28:04.753Z,143.55
2024-04-24T11:29:04.795Z,142.43
2024-04-24T11:30:04.738Z,143.94
2024-04-24T11:31:07.099Z,140.84
2024-04-24T11:32:05.739Z,140.87
2024-04-24T11:33:04.827Z,140.66
2024-04-24T11:34:04.851Z,139.66
2024-04-24T11:35:04.714Z,140.69
2024-04-24T11:36:04.685Z,139.76
2024-04-24T11:37:04.677Z,139.60
2024-04-24T11:38:04.680Z,137.75
2024-04-24T11:39:04.655Z,137.68
2024-04-24T11:40:04.644Z,136.99
2024-04-24T11:41:04.656Z,136.13
2024-04-24T11:42:04.626Z,136.14
2024-04-24T11:43:04.617Z,134.70
2024-04-24T11:44:04.609Z,135.06
2024-04-24T11:45:04.597Z,134.24
2024-04-24T11:46:04.588Z,133.24
2024-04-24T11:47:04.610Z,133.79
2024-04-24T11:48:04.972Z,132.80
2024-04-24T11:49:04.641Z,132.77
2024-04-24T11:50:04.606Z,131.98
2024-04-24T11:51:04.569Z,132.85
2024-04-24T11:52:04.563Z,131.65
2024-04-24T11:53:04.757Z,130.84
2024-04-24T11:54:04.563Z,131.66
2024-04-24T11:55:04.559Z,131.18
2024-04-24T11:56:04.566Z,131.43
2024-04-24T11:57:04.555Z,130.15
2024-04-24T11:58:04.544Z,130.56
2024-04-24T11:59:04.604Z,129.73
2024-04-24T12:00:04.547Z,129.79
2024-04-24T12:01:04.538Z,129.61
2024-04-24T12:02:04.600Z,129.15
2024-04-24T12:03:04.553Z,129.61
2024-04-24T12:04:04.514Z,128.36
2024-04-24T12:05:04.540Z,129.83
2024-04-24T12:06:04.501Z,128.00
2024-04-24T12:07:04.523Z,127.96
2024-04-24T12:08:04.541Z,127.40
2024-04-24T12:09:04.496Z,127.80
2024-04-24T12:10:04.484Z,129.22
2024-04-24T12:11:04.524Z,128.02
2024-04-24T12:12:04.537Z,127.68
2024-04-24T12:13:04.462Z,127.24
2024-04-24T12:14:04.468Z,125.83
2024-04-24T12:15:04.435Z,126.53
2024-04-24T12:16:04.486Z,125.29
2024-04-24T12:17:04.475Z,125.30
2024-04-24T12:18:04.478Z,124.80
2024-04-24T12:19:04.433Z,125.32
2024-04-24T12:20:06.799Z,125.03
2024-04-24T12:21:04.458Z,124.47
2024-04-24T12:22:04.423Z,123.64
2024-04-24T12:23:04.455Z,123.62
2024-04-24T12:24:04.409Z,123.44
2024-04-24T12:25:04.399Z,123.94
2024-04-24T12:26:04.431Z,122.78
2024-04-24T12:27:04.379Z,121.75
2024-04-24T12:28:04.372Z,121.41
2024-04-24T12:29:04.415Z,120.45
2024-04-24T12:30:04.350Z,121.61
2024-04-24T12:31:04.350Z,120.88
2024-04-24T12:32:04.547Z,121.43
2024-04-24T12:33:04.428Z,120.75
2024-04-24T12:34:04.459Z,119.79
2024-04-24T12:35:04.317Z,119.42
2024-04-24T12:36:04.339Z,120.67
2024-04-24T12:37:04.292Z,120.26
2024-04-24T12:38:04.319Z,120.74
2024-04-24T12:39:04.276Z,119.29
2024-04-24T12:40:04.273Z,119.16